Terminal Aerodrome Forecast
Issued by NWS

Home | Current Version | Previous Version | Graphics & Text | Print | Product List | Glossary On
Versions: 1 2 3 4 5 6 7 8 9 10 11 12 13 14 15 16 17 18 19 20 21 22 23 24 25 26 27
308
FTUS45 KGGW 211720
TAFGDV
TAF
KGDV 211720Z 2118/2218 17011KT P6SM FEW200
     FM220900 29006KT P6SM BKN100
     FM221500 33009KT P6SM FEW025 BKN100=

USA.gov is the U.S. government's official web portal to all federal, state and local government web resources and services.